createdAt,value
2022-10-19T00:01:08.701Z,65.15
2022-10-19T00:03:36.198Z,65.20
2022-10-19T00:06:18.582Z,65.27
2022-10-19T00:08:45.587Z,65.06
2022-10-19T00:11:12.768Z,64.96
2022-10-19T00:13:40.266Z,64.76
2022-10-19T00:16:12.662Z,64.64
2022-10-19T00:18:40.215Z,65.17
2022-10-19T00:21:09.275Z,64.56
2022-10-19T00:23:36.266Z,64.57
2022-10-19T00:26:02.821Z,64.13
2022-10-19T00:28:29.381Z,64.39
2022-10-19T00:30:56.148Z,64.58
2022-10-19T00:33:22.894Z,64.31
2022-10-19T00:35:52.260Z,64.47
2022-10-19T00:38:20.881Z,64.71
2022-10-19T00:40:48.289Z,64.45
2022-10-19T00:43:21.138Z,64.73
2022-10-19T00:45:48.302Z,64.62
2022-10-19T00:48:19.166Z,64.51
2022-10-19T00:50:47.696Z,64.70
2022-10-19T00:53:14.766Z,64.29
2022-10-19T00:55:41.671Z,64.51
2022-10-19T00:58:09.603Z,64.67
2022-10-19T01:00:36.685Z,64.22
2022-10-19T01:03:04.546Z,63.86
2022-10-19T01:09:17.555Z,62.99
2022-10-19T01:11:58.389Z,63.02
2022-10-19T01:14:36.437Z,63.21
2022-10-19T01:17:15.683Z,63.26
2022-10-19T01:20:22.147Z,63.05
2022-10-19T01:23:20.665Z,62.98
2022-10-19T01:26:02.466Z,63.25
2022-10-19T01:28:34.744Z,62.97
2022-10-19T01:31:22.858Z,63.25
2022-10-19T01:34:01.795Z,62.99
2022-10-19T01:37:03.194Z,63.72
2022-10-19T01:39:49.778Z,63.74
2022-10-19T01:42:32.146Z,63.42
2022-10-19T01:45:07.653Z,63.78
2022-10-19T01:47:42.537Z,63.65
2022-10-19T01:50:12.134Z,63.92
2022-10-19T01:52:40.818Z,64.04
2022-10-19T01:55:09.648Z,64.06
2022-10-19T01:57:41.849Z,64.18
2022-10-19T02:00:13.166Z,64.20
2022-10-19T02:02:43.277Z,64.53
2022-10-19T02:05:11.726Z,64.51
2022-10-19T02:07:41.013Z,64.47
2022-10-19T02:10:08.010Z,64.32
2022-10-19T02:12:36.783Z,64.19
2022-10-19T02:15:12.739Z,64.00
2022-10-19T02:17:45.469Z,64.12
2022-10-19T02:20:12.517Z,64.38
2022-10-19T02:22:39.614Z,64.12
2022-10-19T02:25:07.300Z,64.06
2022-10-19T02:27:34.318Z,63.86
2022-10-19T02:30:00.865Z,64.01
2022-10-19T02:32:27.959Z,63.42
2022-10-19T02:34:54.926Z,63.80
2022-10-19T02:37:23.438Z,63.99
2022-10-19T02:39:52.113Z,63.84
2022-10-19T02:42:47.313Z,63.90
2022-10-19T02:45:27.468Z,63.68
2022-10-19T02:48:02.342Z,64.02
2022-10-19T02:50:29.413Z,63.71
2022-10-19T02:52:58.458Z,63.45
2022-10-19T02:55:25.142Z,63.18
2022-10-19T02:57:51.611Z,62.99
2022-10-19T03:00:18.198Z,62.94
2022-10-19T03:02:44.641Z,63.05
2022-10-19T03:05:11.237Z,63.19
2022-10-19T03:07:37.824Z,63.18
2022-10-19T03:10:04.692Z,63.37
2022-10-19T03:12:31.144Z,63.15
2022-10-19T03:14:57.511Z,63.24
2022-10-19T03:17:23.992Z,62.69
2022-10-19T03:19:50.549Z,62.76
2022-10-19T03:22:16.944Z,62.39
2022-10-19T03:24:43.614Z,62.64
2022-10-19T03:27:10.048Z,62.83
2022-10-19T03:29:36.501Z,62.69
2022-10-19T03:32:03.177Z,62.83
2022-10-19T03:34:29.696Z,62.87
2022-10-19T03:36:56.752Z,63.05
2022-10-19T03:39:23.504Z,62.73
2022-10-19T03:41:49.985Z,62.71
2022-10-19T03:44:16.845Z,62.95
2022-10-19T03:46:43.469Z,63.10
2022-10-19T03:49:10.358Z,62.98
2022-10-19T03:51:36.880Z,62.98
2022-10-19T03:54:06.401Z,62.94
2022-10-19T03:56:34.552Z,62.93
2022-10-19T03:59:02.578Z,63.13
2022-10-19T04:01:32.267Z,63.32
2022-10-19T04:04:04.896Z,63.30
2022-10-19T04:06:34.468Z,63.00
2022-10-19T04:09:01.951Z,63.16
2022-10-19T04:11:30.171Z,63.04
2022-10-19T04:13:58.403Z,62.99
2022-10-19T04:16:26.847Z,62.71
2022-10-19T04:18:53.574Z,61.77
2022-10-19T04:21:34.310Z,61.69
2022-10-19T04:24:06.335Z,61.53
2022-10-19T04:26:34.103Z,61.59
2022-10-19T04:29:01.660Z,61.57
2022-10-19T04:31:28.778Z,61.33
2022-10-19T04:33:55.555Z,61.29
2022-10-19T04:36:22.142Z,61.39
2022-10-19T04:38:48.651Z,61.03
2022-10-19T04:41:17.887Z,61.26
2022-10-19T04:43:47.927Z,61.00
2022-10-19T04:46:17.334Z,60.69
2022-10-19T04:48:45.124Z,60.72
2022-10-19T04:51:11.936Z,60.85
2022-10-19T04:53:39.882Z,60.67
2022-10-19T04:56:09.414Z,60.84
2022-10-19T04:58:35.851Z,60.66
2022-10-19T05:01:11.203Z,60.42
2022-10-19T05:03:38.367Z,60.63
2022-10-19T05:06:06.046Z,60.28
2022-10-19T05:08:32.657Z,60.08
2022-10-19T05:11:04.382Z,60.18
2022-10-19T05:13:31.369Z,60.48
2022-10-19T05:15:59.320Z,60.23
2022-10-19T05:18:26.106Z,59.79
2022-10-19T05:21:00.764Z,59.87
2022-10-19T05:23:27.259Z,60.08
2022-10-19T05:26:08.472Z,60.31
2022-10-19T05:28:35.318Z,59.78
2022-10-19T05:31:13.149Z,59.83
2022-10-19T05:33:40.638Z,59.97
2022-10-19T05:36:22.546Z,60.23
2022-10-19T05:38:50.184Z,60.33
2022-10-19T05:41:17.250Z,60.80
2022-10-19T05:43:44.315Z,60.45
2022-10-19T05:46:13.132Z,60.02
2022-10-19T05:48:40.353Z,59.84
2022-10-19T05:51:08.752Z,60.26
2022-10-19T05:53:35.489Z,60.61
2022-10-19T05:56:04.830Z,60.42
2022-10-19T05:58:31.355Z,60.70
2022-10-19T06:00:59.560Z,60.90
2022-10-19T06:03:27.149Z,61.44
2022-10-19T06:05:54.418Z,61.42
2022-10-19T06:08:22.563Z,61.46
2022-10-19T06:10:49.749Z,61.47
2022-10-19T06:13:17.578Z,61.24
2022-10-19T06:15:44.129Z,61.45
2022-10-19T06:18:12.189Z,61.77
2022-10-19T06:20:40.973Z,61.08
2022-10-19T06:23:08.734Z,60.93
2022-10-19T06:25:35.951Z,60.88
2022-10-19T06:28:02.669Z,61.10
2022-10-19T06:30:29.185Z,60.84
2022-10-19T06:32:55.864Z,60.89
2022-10-19T06:35:22.420Z,61.70
2022-10-19T06:37:49.337Z,61.62
2022-10-19T06:40:15.800Z,61.77
2022-10-19T06:42:42.205Z,61.87
2022-10-19T06:45:09.989Z,62.21
2022-10-19T06:47:37.425Z,62.93
2022-10-19T06:50:05.584Z,63.01
2022-10-19T06:52:33.601Z,62.67
2022-10-19T06:55:00.471Z,62.80
2022-10-19T06:57:27.056Z,62.32
2022-10-19T06:59:53.794Z,62.85
2022-10-19T07:02:20.754Z,62.75
2022-10-19T07:04:47.236Z,62.90
2022-10-19T07:07:13.649Z,62.76
2022-10-19T07:09:40.107Z,62.89
2022-10-19T07:12:06.622Z,63.00
2022-10-19T07:14:38.561Z,62.97
2022-10-19T07:17:06.243Z,62.74
2022-10-19T07:19:32.835Z,62.50
2022-10-19T07:21:59.359Z,62.16
2022-10-19T07:24:25.891Z,62.04
2022-10-19T07:26:52.312Z,62.30
2022-10-19T07:29:18.784Z,62.67
2022-10-19T07:31:45.199Z,61.52
2022-10-19T07:34:13.461Z,61.23
2022-10-19T07:36:44.631Z,61.10
2022-10-19T07:39:12.487Z,60.62
2022-10-19T07:41:39.345Z,61.05
2022-10-19T07:44:06.242Z,59.99
2022-10-19T07:46:33.800Z,59.69
2022-10-19T07:49:00.733Z,59.49
2022-10-19T07:53:59.641Z,58.65
2022-10-19T07:56:27.813Z,58.61
2022-10-19T07:58:56.307Z,57.26
2022-10-19T08:01:25.473Z,57.20
2022-10-19T08:06:40.646Z,57.07
2022-10-19T08:09:07.208Z,57.13
2022-10-19T08:11:35.222Z,57.50
2022-10-19T08:14:05.054Z,57.29
2022-10-19T08:16:36.619Z,57.62
2022-10-19T08:19:07.169Z,57.24
2022-10-19T08:21:35.229Z,58.06
2022-10-19T08:24:01.912Z,57.97
2022-10-19T08:26:30.551Z,57.70
2022-10-19T08:29:04.829Z,57.74
2022-10-19T08:31:31.363Z,57.55
2022-10-19T08:33:57.816Z,57.34
2022-10-19T08:36:24.680Z,58.07
2022-10-19T08:38:51.165Z,56.83
2022-10-19T08:41:26.758Z,57.11
2022-10-19T08:44:11.533Z,58.04
2022-10-19T08:47:05.188Z,56.96
2022-10-19T08:49:33.813Z,57.09
2022-10-19T08:52:18.014Z,56.95
2022-10-19T08:54:51.677Z,56.27
2022-10-19T08:57:39.763Z,56.12
2022-10-19T09:00:37.081Z,55.78
2022-10-19T09:03:32.056Z,55.07
2022-10-19T09:06:12.894Z,54.62
2022-10-19T09:08:39.901Z,54.55
2022-10-19T09:11:09.873Z,53.90
2022-10-19T09:14:04.169Z,53.93
2022-10-19T09:16:32.683Z,53.71
2022-10-19T09:18:59.151Z,53.14
2022-10-19T09:21:54.246Z,52.85
2022-10-19T09:24:34.990Z,53.10
2022-10-19T09:27:02.648Z,53.22
2022-10-19T09:29:58.367Z,53.82
2022-10-19T09:32:30.993Z,52.06
2022-10-19T09:35:02.360Z,50.31
2022-10-19T09:40:01.278Z,51.63
2022-10-19T09:42:37.100Z,50.56
2022-10-19T09:45:17.452Z,47.73
2022-10-19T09:47:47.744Z,45.74
2022-10-19T09:50:25.754Z,46.92
2022-10-19T09:52:55.339Z,46.54
2022-10-19T09:55:38.291Z,47.35
2022-10-19T09:58:06.473Z,48.62
2022-10-19T10:00:39.410Z,49.08
2022-10-19T10:03:07.480Z,48.98
2022-10-19T10:05:47.640Z,49.64
2022-10-19T10:08:20.708Z,50.39
2022-10-19T10:11:06.980Z,49.77
2022-10-19T10:13:37.795Z,50.12
2022-10-19T10:16:08.133Z,50.62
2022-10-19T10:18:38.612Z,50.75
2022-10-19T10:21:25.110Z,50.79
2022-10-19T10:23:59.339Z,50.53
2022-10-19T10:26:26.545Z,48.86
2022-10-19T10:28:53.912Z,50.46
2022-10-19T10:31:26.610Z,48.45
2022-10-19T10:34:12.165Z,48.56
2022-10-19T10:36:51.333Z,47.30
2022-10-19T10:39:18.037Z,46.23
2022-10-19T10:41:47.039Z,44.73
2022-10-19T10:44:29.705Z,44.34
2022-10-19T10:46:58.590Z,46.85
2022-10-19T10:49:36.634Z,45.96
2022-10-19T10:52:16.639Z,47.08
2022-10-19T10:55:18.874Z,46.92
2022-10-19T10:57:50.882Z,44.98
2022-10-19T11:00:24.081Z,43.16
2022-10-19T11:02:56.294Z,41.42
2022-10-19T11:05:33.428Z,42.56
2022-10-19T11:08:25.171Z,40.13
2022-10-19T11:10:57.186Z,37.81
2022-10-19T11:13:44.509Z,38.14
2022-10-19T11:16:17.798Z,38.52
2022-10-19T11:19:12.531Z,39.44
2022-10-19T11:21:50.807Z,40.50
2022-10-19T11:24:26.471Z,40.75
2022-10-19T11:27:15.627Z,41.08
2022-10-19T11:29:56.902Z,40.46
2022-10-19T11:32:58.942Z,41.85
2022-10-19T11:35:37.421Z,41.27
2022-10-19T11:38:25.127Z,41.37
2022-10-19T11:41:18.154Z,41.19
2022-10-19T11:44:15.848Z,39.16
2022-10-19T11:47:05.347Z,33.65
2022-10-19T11:50:01.210Z,29.31
2022-10-19T11:52:30.716Z,29.19
2022-10-19T11:55:25.369Z,26.47
2022-10-19T11:58:09.469Z,26.92
2022-10-19T12:00:44.755Z,28.67
2022-10-19T12:03:20.089Z,31.89
2022-10-19T12:06:07.952Z,34.98
2022-10-19T12:08:49.161Z,35.87
2022-10-19T12:11:36.226Z,37.49
2022-10-19T12:14:18.120Z,38.49
2022-10-19T12:16:50.016Z,39.22
2022-10-19T12:19:21.270Z,40.34
2022-10-19T12:21:48.379Z,40.53
2022-10-19T12:24:19.951Z,40.12
2022-10-19T12:26:47.584Z,40.12
2022-10-19T12:29:19.103Z,40.09
2022-10-19T12:31:46.963Z,37.90
2022-10-19T12:34:20.768Z,36.63
2022-10-19T12:37:10.410Z,34.74
2022-10-19T12:39:43.158Z,35.16
2022-10-19T12:42:53.700Z,35.51
2022-10-19T12:45:27.551Z,36.40
2022-10-19T12:48:09.072Z,37.68
2022-10-19T12:50:50.487Z,37.55
2022-10-19T12:53:28.578Z,38.60
2022-10-19T12:56:01.296Z,38.52
2022-10-19T12:58:53.118Z,40.13
2022-10-19T13:01:23.403Z,38.86
2022-10-19T13:04:07.700Z,39.34
2022-10-19T13:06:37.734Z,39.60
2022-10-19T13:09:08.098Z,39.64
2022-10-19T13:11:36.135Z,39.68
2022-10-19T13:14:27.441Z,38.10
2022-10-19T13:17:37.839Z,37.98
2022-10-19T13:20:13.278Z,38.96
2022-10-19T13:22:40.462Z,38.25
2022-10-19T13:25:33.226Z,38.63
2022-10-19T13:28:17.856Z,38.49
2022-10-19T13:30:44.198Z,38.93
2022-10-19T13:33:40.398Z,40.16
2022-10-19T13:36:10.723Z,40.02
2022-10-19T13:38:38.883Z,40.12
2022-10-19T13:41:21.615Z,38.76
2022-10-19T13:44:13.833Z,40.18
2022-10-19T13:46:53.848Z,38.62
2022-10-19T13:49:39.804Z,39.03
2022-10-19T13:52:51.155Z,38.76
2022-10-19T13:55:32.716Z,39.07
2022-10-19T13:58:20.985Z,40.03
2022-10-19T14:01:02.349Z,40.77
2022-10-19T14:03:53.579Z,40.74
2022-10-19T14:06:47.570Z,41.27
2022-10-19T14:09:51.623Z,41.24
2022-10-19T14:12:24.916Z,41.43
2022-10-19T14:14:54.644Z,41.03
2022-10-19T14:17:24.591Z,41.93
2022-10-19T14:19:57.042Z,41.74
2022-10-19T14:22:36.169Z,41.79
2022-10-19T14:25:14.814Z,41.40
2022-10-19T14:27:41.343Z,41.54
2022-10-19T14:30:31.510Z,42.09
2022-10-19T14:33:02.247Z,42.08
2022-10-19T14:35:36.196Z,42.22
2022-10-19T14:38:05.740Z,42.04
2022-10-19T14:40:40.124Z,42.32
2022-10-19T14:43:34.554Z,41.75
2022-10-19T14:46:13.485Z,42.28
2022-10-19T14:48:42.872Z,41.66
2022-10-19T14:51:48.673Z,41.87
2022-10-19T14:54:42.786Z,42.38
2022-10-19T14:57:13.845Z,42.83
2022-10-19T14:59:57.385Z,42.81
2022-10-19T15:02:26.806Z,43.18
2022-10-19T15:04:56.407Z,43.96
2022-10-19T15:07:25.158Z,44.07
2022-10-19T15:09:56.646Z,44.38
2022-10-19T15:12:29.259Z,43.56
2022-10-19T15:14:57.375Z,43.83
2022-10-19T15:17:27.188Z,44.71
2022-10-19T15:19:56.045Z,44.83
2022-10-19T15:22:37.133Z,44.51
2022-10-19T15:25:06.430Z,45.15
2022-10-19T15:27:46.025Z,44.78
2022-10-19T15:30:18.403Z,45.36
2022-10-19T15:32:50.947Z,44.17
2022-10-19T15:35:29.078Z,44.12
2022-10-19T15:38:05.393Z,44.64
2022-10-19T15:40:35.642Z,44.56
2022-10-19T15:43:30.934Z,44.25
2022-10-19T15:46:12.415Z,44.49
2022-10-19T15:48:41.658Z,44.58
2022-10-19T15:51:23.170Z,44.76
2022-10-19T15:53:53.437Z,44.57
2022-10-19T15:56:21.204Z,44.85
2022-10-19T15:58:52.680Z,45.53
2022-10-19T16:01:22.522Z,44.95
2022-10-19T16:03:49.798Z,45.26
2022-10-19T16:06:17.395Z,45.31
2022-10-19T16:08:46.207Z,45.59
2022-10-19T16:11:17.601Z,46.03
2022-10-19T16:13:44.211Z,46.27
2022-10-19T16:16:15.595Z,46.32
2022-10-19T16:18:41.982Z,47.14
2022-10-19T16:21:08.386Z,47.17
2022-10-19T16:23:39.297Z,47.26
2022-10-19T16:26:08.445Z,47.81
2022-10-19T16:28:34.855Z,48.01
2022-10-19T16:31:01.302Z,47.94
2022-10-19T16:33:27.753Z,48.30
2022-10-19T16:35:54.178Z,48.53
2022-10-19T16:38:20.569Z,48.57
2022-10-19T16:40:46.976Z,49.01
2022-10-19T16:43:13.420Z,49.12
2022-10-19T16:45:43.494Z,49.24
2022-10-19T16:48:12.102Z,49.67
2022-10-19T16:50:39.044Z,49.93
2022-10-19T16:53:10.337Z,50.38
2022-10-19T16:55:37.697Z,50.24
2022-10-19T16:58:04.142Z,50.32
2022-10-19T17:00:30.724Z,50.40
2022-10-19T17:02:57.478Z,50.55
2022-10-19T17:05:24.317Z,51.07
2022-10-19T17:07:50.768Z,51.12
2022-10-19T17:10:17.434Z,51.25
2022-10-19T17:12:43.983Z,51.75
2022-10-19T17:15:40.948Z,51.74
2022-10-19T17:17:58.016Z,51.76
2022-10-19T17:20:24.429Z,51.92
2022-10-19T17:22:53.598Z,52.16
2022-10-19T17:25:20.192Z,52.34
2022-10-19T17:27:50.823Z,52.78
2022-10-19T17:30:17.721Z,52.98
2022-10-19T17:32:44.253Z,53.10
2022-10-19T17:35:10.718Z,53.19
2022-10-19T17:37:37.817Z,53.52
2022-10-19T17:40:04.977Z,53.75
2022-10-19T17:42:32.156Z,53.96
2022-10-19T17:44:58.544Z,53.88
2022-10-19T17:47:24.952Z,53.72
2022-10-19T17:49:51.348Z,54.00
2022-10-19T17:52:17.726Z,54.49
2022-10-19T17:54:54.554Z,54.44
2022-10-19T17:57:27.116Z,54.66
2022-10-19T17:59:54.595Z,54.80
2022-10-19T18:02:21.065Z,54.85
2022-10-19T18:04:47.487Z,54.71
2022-10-19T18:07:13.927Z,55.28
2022-10-19T18:09:40.498Z,55.05
2022-10-19T18:12:08.619Z,54.44
2022-10-19T18:14:35.007Z,54.19
2022-10-19T18:17:01.449Z,54.25
2022-10-19T18:19:27.927Z,54.19
2022-10-19T18:21:54.441Z,54.36
2022-10-19T18:24:21.454Z,54.54
2022-10-19T18:26:51.254Z,54.66
2022-10-19T18:29:23.550Z,54.43
2022-10-19T18:31:53.409Z,54.31
2022-10-19T18:34:23.539Z,54.71
2022-10-19T18:36:50.888Z,54.78
2022-10-19T18:39:18.025Z,54.15
2022-10-19T18:41:44.489Z,54.08
2022-10-19T18:44:12.890Z,54.28
2022-10-19T18:46:39.804Z,53.44
2022-10-19T18:49:08.170Z,53.20
2022-10-19T18:51:35.291Z,53.66
2022-10-19T18:54:01.809Z,53.60
2022-10-19T18:56:29.372Z,52.85
2022-10-19T18:58:56.820Z,52.70
2022-10-19T19:01:26.761Z,52.67
2022-10-19T19:03:58.412Z,52.61
2022-10-19T19:06:29.214Z,52.74
2022-10-19T19:08:57.091Z,52.68
2022-10-19T19:11:26.520Z,52.41
2022-10-19T19:13:55.518Z,52.96
2022-10-19T19:16:23.349Z,53.27
2022-10-19T19:18:50.424Z,53.45
2022-10-19T19:21:28.117Z,53.37
2022-10-19T19:23:56.234Z,53.56
2022-10-19T19:26:24.193Z,53.44
2022-10-19T19:28:51.684Z,53.40
2022-10-19T19:31:19.590Z,53.51
2022-10-19T19:33:47.393Z,53.60
2022-10-19T19:36:15.770Z,53.38
2022-10-19T19:38:43.227Z,53.57
2022-10-19T19:41:12.865Z,53.62
2022-10-19T19:43:40.097Z,53.52
2022-10-19T19:46:09.554Z,53.87
2022-10-19T19:48:37.198Z,54.28
2022-10-19T19:51:03.929Z,54.11
2022-10-19T19:53:30.561Z,54.73
2022-10-19T19:55:57.086Z,54.57
2022-10-19T19:58:23.541Z,54.79
2022-10-19T20:00:50.088Z,54.88
2022-10-19T20:03:16.562Z,55.14
2022-10-19T20:05:43.047Z,55.20
2022-10-19T20:08:09.894Z,55.68
2022-10-19T20:10:41.044Z,55.88
2022-10-19T20:13:07.784Z,56.22
2022-10-19T20:15:37.634Z,56.43
2022-10-19T20:18:04.364Z,56.08
2022-10-19T20:20:30.749Z,55.87
2022-10-19T20:22:57.414Z,55.67
2022-10-19T20:25:23.854Z,55.58
2022-10-19T20:27:50.305Z,55.57
2022-10-19T20:30:16.872Z,55.19
2022-10-19T20:32:43.308Z,55.48
2022-10-19T20:35:09.843Z,55.07
2022-10-19T20:37:36.256Z,55.21
2022-10-19T20:40:08.128Z,55.28
2022-10-19T20:42:35.348Z,55.40
2022-10-19T20:45:01.955Z,56.02
2022-10-19T20:47:28.361Z,56.21
2022-10-19T20:49:54.987Z,55.92
2022-10-19T20:52:21.430Z,55.88
2022-10-19T20:54:48.396Z,56.29
2022-10-19T20:57:14.950Z,56.21
2022-10-19T20:59:43.725Z,56.17
2022-10-19T21:02:10.731Z,56.52
2022-10-19T21:04:37.485Z,56.25
2022-10-19T21:07:04.935Z,56.20
2022-10-19T21:09:31.498Z,56.37
2022-10-19T21:11:58.158Z,56.26
2022-10-19T21:14:28.728Z,56.45
2022-10-19T21:16:58.790Z,56.65
2022-10-19T21:19:27.867Z,56.98
2022-10-19T21:21:57.706Z,56.87
2022-10-19T21:24:27.089Z,56.97
2022-10-19T21:26:53.873Z,56.83
2022-10-19T21:29:20.583Z,56.98
2022-10-19T21:31:49.323Z,57.02
2022-10-19T21:34:19.064Z,57.15
2022-10-19T21:36:45.635Z,57.02
2022-10-19T21:39:12.077Z,57.15
2022-10-19T21:41:38.494Z,57.20
2022-10-19T21:44:05.208Z,57.58
2022-10-19T21:46:31.631Z,57.64
2022-10-19T21:48:58.214Z,57.92
2022-10-19T21:51:33.310Z,57.65
2022-10-19T21:54:00.541Z,57.94
2022-10-19T21:56:27.318Z,58.18
2022-10-19T21:58:54.397Z,58.17
2022-10-19T22:01:24.250Z,58.14
2022-10-19T22:03:58.688Z,58.40
2022-10-19T22:06:27.452Z,58.35
2022-10-19T22:08:54.919Z,58.68
2022-10-19T22:11:22.174Z,58.51
2022-10-19T22:13:48.812Z,58.77
2022-10-19T22:16:17.942Z,58.76
2022-10-19T22:18:45.085Z,58.92
2022-10-19T22:21:14.226Z,58.81
2022-10-19T22:23:41.360Z,58.82
2022-10-19T22:26:19.540Z,59.35
2022-10-19T22:28:46.027Z,59.34
2022-10-19T22:31:13.133Z,59.41
2022-10-19T22:33:40.097Z,59.09
2022-10-19T22:36:08.552Z,59.00
2022-10-19T22:38:35.794Z,59.34
2022-10-19T22:41:02.235Z,59.53
2022-10-19T22:43:28.674Z,59.11
2022-10-19T22:45:55.108Z,58.81
2022-10-19T22:48:21.560Z,58.85
2022-10-19T22:50:48.024Z,58.90
2022-10-19T22:53:14.490Z,58.64
2022-10-19T22:55:41.110Z,58.65
2022-10-19T22:58:08.289Z,58.44
2022-10-19T23:00:34.777Z,58.71
2022-10-19T23:03:01.217Z,58.84
2022-10-19T23:05:27.815Z,59.05
2022-10-19T23:07:54.200Z,59.03
2022-10-19T23:10:20.674Z,58.65
2022-10-19T23:12:51.234Z,58.95
2022-10-19T23:15:17.905Z,58.62
2022-10-19T23:17:44.514Z,58.82
2022-10-19T23:20:11.705Z,58.59
2022-10-19T23:22:38.451Z,58.87
2022-10-19T23:25:05.463Z,58.75
2022-10-19T23:27:31.929Z,58.69
2022-10-19T23:29:59.204Z,58.64
2022-10-19T23:32:25.760Z,58.33
2022-10-19T23:34:52.158Z,58.31
2022-10-19T23:37:18.569Z,58.22
2022-10-19T23:39:44.986Z,58.31
2022-10-19T23:42:11.393Z,58.16
2022-10-19T23:44:37.801Z,58.21
2022-10-19T23:47:04.223Z,58.35
2022-10-19T23:49:30.634Z,58.69
2022-10-19T23:51:57.079Z,58.60
2022-10-19T23:54:23.595Z,58.62
2022-10-19T23:56:50.045Z,58.50
2022-10-19T23:59:16.519Z,58.47
